首页
METAR-TAF:

METAR-TAF

机场 :

Middleton Field

Evergreen, 阿拉巴马州, 美国

纬度: 31-25-08N, 经度: 087-02-53W, 海拔: 78米

当前天气观测

该预报发布于1小时和7分钟前的20:53 UTC
风速3节,风向北转东北
温度 29°C
湿度 58%
气压 1015 hPa
能見度: 16.1公里
散云层高于3700英尺
多云层高于10000英尺

METAR: KGZH 232053Z AUTO 03003KT 10SM SCT037 BKN100 29/20 A2996 RMK AO2 SLP143 T02890200 56024

时间: 17:00 (22:00 UTC)


TAF: 丢失

超过4000个机场的气象观测和天气预报(METAR&TAF报告)。

可查询的气象台以黄色和红色小点在地图上表示。

将鼠标移到小点上方,可查看气象台名称。

然后点击查看天气观测和预报。

如需切换地图:点击带黑十字的绿色按钮放大地图;点击带横线的绿色按钮缩小地图;或者点击绿色箭头查看邻近地区的地图。


METAR-TAF: